sensor_id;sensor_type;location;lat;lon;timestamp;pressure;altitude;pressure_sealevel;temperature;humidity
37648;BME280;23490;53.656;10.076;2023-03-29T00:01:32;99467.56;;;-145.95;97.37
37648;BME280;23490;53.656;10.076;2023-03-29T00:03:58;99463.44;;;-145.95;94.66
37648;BME280;23490;53.656;10.076;2023-03-29T00:06:24;99471.69;;;-145.95;96.29
37648;BME280;23490;53.656;10.076;2023-03-29T00:08:55;99467.56;;;-145.95;95.91
37648;BME280;23490;53.656;10.076;2023-03-29T00:11:20;99438.66;;;-145.95;94.13
37648;BME280;23490;53.656;10.076;2023-03-29T00:13:47;99467.56;;;-145.95;93.88
37648;BME280;23490;53.656;10.076;2023-03-29T00:16:13;99459.31;;;-145.95;92.40
37648;BME280;23490;53.656;10.076;2023-03-29T00:18:38;99442.78;;;-145.95;95.98
37648;BME280;23490;53.656;10.076;2023-03-29T00:21:04;99426.28;;;-145.95;94.21
37648;BME280;23490;53.656;10.076;2023-03-29T00:23:29;99465.50;;;-145.95;92.88
37648;BME280;23490;53.656;10.076;2023-03-29T00:25:55;99434.53;;;-145.95;93.53
37648;BME280;23490;53.656;10.076;2023-03-29T00:28:21;99500.63;;;-145.95;93.28
37648;BME280;23490;53.656;10.076;2023-03-29T00:30:47;99465.50;;;-145.95;93.09
37648;BME280;23490;53.656;10.076;2023-03-29T00:33:14;99471.69;;;-145.95;91.94
37648;BME280;23490;53.656;10.076;2023-03-29T00:35:40;99434.53;;;-145.95;93.79
37648;BME280;23490;53.656;10.076;2023-03-29T00:38:06;99448.97;;;-145.95;91.87
37648;BME280;23490;53.656;10.076;2023-03-29T00:40:33;99430.41;;;-145.95;92.81
37648;BME280;23490;53.656;10.076;2023-03-29T00:42:58;99430.41;;;-145.95;95.63
37648;BME280;23490;53.656;10.076;2023-03-29T00:45:26;99457.25;;;-145.95;96.51
37648;BME280;23490;53.656;10.076;2023-03-29T00:48:01;99492.34;;;-145.95;96.69
37648;BME280;23490;53.656;10.076;2023-03-29T00:50:47;99475.84;;;-145.95;96.83
37648;BME280;23490;53.656;10.076;2023-03-29T00:53:25;99490.28;;;-145.95;96.15
37648;BME280;23490;53.656;10.076;2023-03-29T00:56:01;99500.63;;;-145.95;98.79
37648;BME280;23490;53.656;10.076;2023-03-29T00:58:45;99488.22;;;-145.95;96.17
37648;BME280;23490;53.656;10.076;2023-03-29T01:01:15;99463.44;;;-145.95;95.01
37648;BME280;23490;53.656;10.076;2023-03-29T01:03:53;99451.06;;;-145.95;99.40
37648;BME280;23490;53.656;10.076;2023-03-29T01:06:23;99459.31;;;-145.95;100.00
37648;BME280;23490;53.656;10.076;2023-03-29T01:08:55;99426.28;;;-145.95;100.00
37648;BME280;23490;53.656;10.076;2023-03-29T01:11:37;99459.31;;;-145.95;100.00
37648;BME280;23490;53.656;10.076;2023-03-29T01:14:06;99471.69;;;-145.95;100.00
37648;BME280;23490;53.656;10.076;2023-03-29T01:16:35;99492.34;;;-145.95;100.00
37648;BME280;23490;53.656;10.076;2023-03-29T01:19:04;99475.84;;;-145.95;100.00
37648;BME280;23490;53.656;10.076;2023-03-29T01:21:45;99469.63;;;-145.95;100.00
37648;BME280;23490;53.656;10.076;2023-03-29T01:24:28;99463.44;;;-145.95;100.00
37648;BME280;23490;53.656;10.076;2023-03-29T01:27:11;99479.97;;;-145.95;99.88
37648;BME280;23490;53.656;10.076;2023-03-29T01:29:56;99479.97;;;-145.95;100.00
37648;BME280;23490;53.656;10.076;2023-03-29T01:35:05;99461.38;;;-145.95;100.00
37648;BME280;23490;53.656;10.076;2023-03-29T01:37:42;99473.75;;;-145.95;98.71
37648;BME280;23490;53.656;10.076;2023-03-29T01:40:10;99500.63;;;-145.95;96.98
37648;BME280;23490;53.656;10.076;2023-03-29T01:45:49;99455.19;;;-145.95;100.00
37648;BME280;23490;53.656;10.076;2023-03-29T01:48:25;99521.28;;;-145.95;100.00
37648;BME280;23490;53.656;10.076;2023-03-29T01:50:54;99515.06;;;-145.95;100.00
37648;BME280;23490;53.656;10.076;2023-03-29T01:56:04;99484.09;;;-145.95;100.00
37648;BME280;23490;53.656;10.076;2023-03-29T01:58:35;99500.63;;;-145.95;100.00
37648;BME280;23490;53.656;10.076;2023-03-29T02:01:04;99513.00;;;-145.95;100.00
37648;BME280;23490;53.656;10.076;2023-03-29T02:03:34;99533.66;;;-145.95;100.00
37648;BME280;23490;53.656;10.076;2023-03-29T02:06:08;99525.41;;;-145.95;100.00
37648;BME280;23490;53.656;10.076;2023-03-29T02:08:35;99502.69;;;-145.95;100.00
37648;BME280;23490;53.656;10.076;2023-03-29T02:11:03;99521.28;;;-145.95;100.00
37648;BME280;23490;53.656;10.076;2023-03-29T02:13:28;99533.66;;;-145.95;100.00
37648;BME280;23490;53.656;10.076;2023-03-29T02:15:54;99537.78;;;-145.95;100.00
37648;BME280;23490;53.656;10.076;2023-03-29T02:18:19;99521.28;;;-145.95;100.00
37648;BME280;23490;53.656;10.076;2023-03-29T02:20:47;99513.00;;;-145.95;100.00
37648;BME280;23490;53.656;10.076;2023-03-29T02:23:22;99541.91;;;-145.95;100.00
37648;BME280;23490;53.656;10.076;2023-03-29T02:25:50;99558.44;;;-145.95;100.00
37648;BME280;23490;53.656;10.076;2023-03-29T02:28:19;99562.56;;;-145.95;100.00
37648;BME280;23490;53.656;10.076;2023-03-29T02:31:18;99566.69;;;-145.95;100.00
37648;BME280;23490;53.656;10.076;2023-03-29T02:34:10;99500.63;;;-145.95;100.00
37648;BME280;23490;53.656;10.076;2023-03-29T02:36:49;99521.28;;;-145.95;100.00
37648;BME280;23490;53.656;10.076;2023-03-29T02:39:16;99546.06;;;-145.95;100.00
37648;BME280;23490;53.656;10.076;2023-03-29T02:41:44;99525.41;;;-145.95;100.00
37648;BME280;23490;53.656;10.076;2023-03-29T02:44:14;99525.41;;;-145.95;99.49
37648;BME280;23490;53.656;10.076;2023-03-29T02:46:41;99508.88;;;-145.95;100.00
37648;BME280;23490;53.656;10.076;2023-03-29T02:49:11;99541.91;;;-145.95;98.73
37648;BME280;23490;53.656;10.076;2023-03-29T02:51:37;99539.84;;;-145.95;100.00
37648;BME280;23490;53.656;10.076;2023-03-29T02:54:16;99546.06;;;-145.95;97.22
37648;BME280;23490;53.656;10.076;2023-03-29T02:56:55;99513.00;;;-145.95;98.32
37648;BME280;23490;53.656;10.076;2023-03-29T02:59:21;99556.38;;;-145.95;95.30
37648;BME280;23490;53.656;10.076;2023-03-29T03:01:49;99500.63;;;-145.95;93.67
37648;BME280;23490;53.656;10.076;2023-03-29T03:04:15;99535.72;;;-145.95;90.12
37648;BME280;23490;53.656;10.076;2023-03-29T03:06:42;99533.66;;;-145.95;94.05
37648;BME280;23490;53.656;10.076;2023-03-29T03:09:07;99558.44;;;-145.95;90.54
37648;BME280;23490;53.656;10.076;2023-03-29T03:11:35;99560.50;;;-145.95;91.91
37648;BME280;23490;53.656;10.076;2023-03-29T03:14:00;99529.53;;;-145.95;88.48
37648;BME280;23490;53.656;10.076;2023-03-29T03:16:26;99550.19;;;-145.95;89.29
37648;BME280;23490;53.656;10.076;2023-03-29T03:18:52;99529.53;;;-145.95;91.39
37648;BME280;23490;53.656;10.076;2023-03-29T03:21:20;99510.94;;;-145.95;89.45
37648;BME280;23490;53.656;10.076;2023-03-29T03:23:46;99513.00;;;-145.95;85.66
37648;BME280;23490;53.656;10.076;2023-03-29T03:26:13;99541.91;;;-145.95;85.95
37648;BME280;23490;53.656;10.076;2023-03-29T03:28:39;99521.28;;;-145.95;88.13
37648;BME280;23490;53.656;10.076;2023-03-29T03:31:05;99508.88;;;-145.95;89.16
37648;BME280;23490;53.656;10.076;2023-03-29T03:33:33;99537.78;;;-145.95;87.25
37648;BME280;23490;53.656;10.076;2023-03-29T03:35:59;99517.13;;;-145.95;86.65
37648;BME280;23490;53.656;10.076;2023-03-29T03:38:32;99506.81;;;-145.95;86.08
37648;BME280;23490;53.656;10.076;2023-03-29T03:40:59;99527.47;;;-145.95;86.14
37648;BME280;23490;53.656;10.076;2023-03-29T03:43:26;99525.41;;;-145.95;85.80
37648;BME280;23490;53.656;10.076;2023-03-29T03:45:52;99556.38;;;-145.95;87.30
37648;BME280;23490;53.656;10.076;2023-03-29T03:48:20;99535.72;;;-145.95;86.34
37648;BME280;23490;53.656;10.076;2023-03-29T03:50:49;99513.00;;;-145.95;86.28
37648;BME280;23490;53.656;10.076;2023-03-29T03:53:15;99525.41;;;-145.95;84.53
37648;BME280;23490;53.656;10.076;2023-03-29T03:55:40;99525.41;;;-145.95;85.26
37648;BME280;23490;53.656;10.076;2023-03-29T03:58:07;99533.66;;;-145.95;84.49
37648;BME280;23490;53.656;10.076;2023-03-29T04:00:32;99537.78;;;-145.95;83.90
37648;BME280;23490;53.656;10.076;2023-03-29T04:02:58;99504.75;;;-145.95;84.54
37648;BME280;23490;53.656;10.076;2023-03-29T04:05:23;99521.28;;;-145.95;84.04
37648;BME280;23490;53.656;10.076;2023-03-29T04:07:49;99548.13;;;-145.95;83.54
37648;BME280;23490;53.656;10.076;2023-03-29T04:10:15;99566.69;;;-145.95;85.09
37648;BME280;23490;53.656;10.076;2023-03-29T04:12:40;99490.28;;;-145.95;84.22
37648;BME280;23490;53.656;10.076;2023-03-29T04:15:06;99521.28;;;-145.95;83.02
37648;BME280;23490;53.656;10.076;2023-03-29T04:17:33;99533.66;;;-145.95;85.05
37648;BME280;23490;53.656;10.076;2023-03-29T04:19:58;99535.72;;;-145.95;84.15
37648;BME280;23490;53.656;10.076;2023-03-29T04:22:25;99595.63;;;-145.95;84.03
37648;BME280;23490;53.656;10.076;2023-03-29T04:24:50;99527.47;;;-145.95;84.03
37648;BME280;23490;53.656;10.076;2023-03-29T04:27:17;99513.00;;;-145.95;84.93
37648;BME280;23490;53.656;10.076;2023-03-29T04:29:42;99558.44;;;-145.95;84.89
37648;BME280;23490;53.656;10.076;2023-03-29T04:32:09;99529.53;;;-145.95;85.35
37648;BME280;23490;53.656;10.076;2023-03-29T04:34:35;99513.00;;;-145.95;84.43
37648;BME280;23490;53.656;10.076;2023-03-29T04:37:01;99570.84;;;-145.95;85.38
37648;BME280;23490;53.656;10.076;2023-03-29T04:39:26;99525.41;;;-145.95;89.39
37648;BME280;23490;53.656;10.076;2023-03-29T04:41:58;99535.72;;;-145.95;88.51
37648;BME280;23490;53.656;10.076;2023-03-29T04:44:24;99541.91;;;-145.95;87.33
37648;BME280;23490;53.656;10.076;2023-03-29T04:46:51;99535.72;;;-145.95;85.31
37648;BME280;23490;53.656;10.076;2023-03-29T04:49:16;99537.78;;;-145.95;86.05
37648;BME280;23490;53.656;10.076;2023-03-29T04:51:42;99544.00;;;-145.95;85.50
37648;BME280;23490;53.656;10.076;2023-03-29T04:54:08;99558.44;;;-145.95;85.67
37648;BME280;23490;53.656;10.076;2023-03-29T04:56:33;99533.66;;;-145.95;86.14
37648;BME280;23490;53.656;10.076;2023-03-29T04:58:58;99517.13;;;-145.95;85.90
37648;BME280;23490;53.656;10.076;2023-03-29T05:01:24;99533.66;;;-145.95;86.40
37648;BME280;23490;53.656;10.076;2023-03-29T05:03:49;99560.50;;;-145.95;87.31
37648;BME280;23490;53.656;10.076;2023-03-29T05:06:15;99525.41;;;-145.95;88.64
37648;BME280;23490;53.656;10.076;2023-03-29T05:08:41;99504.75;;;-145.95;87.40
37648;BME280;23490;53.656;10.076;2023-03-29T05:11:08;99517.13;;;-145.95;86.91
37648;BME280;23490;53.656;10.076;2023-03-29T05:13:34;99508.88;;;-145.95;86.98
37648;BME280;23490;53.656;10.076;2023-03-29T05:16:00;99537.78;;;-145.95;86.40
37648;BME280;23490;53.656;10.076;2023-03-29T05:18:27;99513.00;;;-145.95;88.70
37648;BME280;23490;53.656;10.076;2023-03-29T05:20:53;99527.47;;;-145.95;86.75
37648;BME280;23490;53.656;10.076;2023-03-29T05:23:19;99523.34;;;-145.95;87.69
37648;BME280;23490;53.656;10.076;2023-03-29T05:25:49;99535.72;;;-145.95;86.05
37648;BME280;23490;53.656;10.076;2023-03-29T05:28:15;99517.13;;;-145.95;88.03
37648;BME280;23490;53.656;10.076;2023-03-29T05:30:41;99525.41;;;-145.95;86.61
37648;BME280;23490;53.656;10.076;2023-03-29T05:33:07;99535.72;;;-145.95;86.93
37648;BME280;23490;53.656;10.076;2023-03-29T05:35:33;99488.22;;;-145.95;86.26
37648;BME280;23490;53.656;10.076;2023-03-29T05:38:00;99521.28;;;-145.95;87.05
37648;BME280;23490;53.656;10.076;2023-03-29T05:40:26;99529.53;;;-145.95;87.23
37648;BME280;23490;53.656;10.076;2023-03-29T05:42:52;99572.91;;;-145.95;87.36
37648;BME280;23490;53.656;10.076;2023-03-29T05:45:18;99506.81;;;-145.95;87.82
37648;BME280;23490;53.656;10.076;2023-03-29T05:47:44;99546.06;;;-145.95;88.79
37648;BME280;23490;53.656;10.076;2023-03-29T05:50:10;99510.94;;;-145.95;87.33
37648;BME280;23490;53.656;10.076;2023-03-29T05:52:36;99552.25;;;-145.95;87.44
37648;BME280;23490;53.656;10.076;2023-03-29T05:55:05;99546.06;;;-145.95;87.04
37648;BME280;23490;53.656;10.076;2023-03-29T05:57:34;99517.13;;;-145.95;87.55
37648;BME280;23490;53.656;10.076;2023-03-29T06:00:00;99504.75;;;-145.95;87.34
37648;BME280;23490;53.656;10.076;2023-03-29T06:02:26;99533.66;;;-145.95;87.79
37648;BME280;23490;53.656;10.076;2023-03-29T06:04:53;99515.06;;;-145.95;86.99
37648;BME280;23490;53.656;10.076;2023-03-29T06:07:19;99504.75;;;-145.95;87.42
37648;BME280;23490;53.656;10.076;2023-03-29T06:09:44;99488.22;;;-145.95;88.26
37648;BME280;23490;53.656;10.076;2023-03-29T06:12:10;99500.63;;;-145.95;88.74
37648;BME280;23490;53.656;10.076;2023-03-29T06:14:37;99492.34;;;-145.95;88.19
37648;BME280;23490;53.656;10.076;2023-03-29T06:17:03;99492.34;;;-145.95;88.80
37648;BME280;23490;53.656;10.076;2023-03-29T06:19:28;99484.09;;;-145.95;87.82
37648;BME280;23490;53.656;10.076;2023-03-29T06:21:53;99510.94;;;-145.95;90.48
37648;BME280;23490;53.656;10.076;2023-03-29T06:24:19;99463.44;;;-145.95;88.31
37648;BME280;23490;53.656;10.076;2023-03-29T06:26:45;99486.16;;;-145.95;88.94
37648;BME280;23490;53.656;10.076;2023-03-29T06:29:11;99471.69;;;-145.95;88.62
37648;BME280;23490;53.656;10.076;2023-03-29T06:31:37;99471.69;;;-145.95;88.10
37648;BME280;23490;53.656;10.076;2023-03-29T06:34:02;99479.97;;;-145.95;87.33
37648;BME280;23490;53.656;10.076;2023-03-29T06:36:29;99451.06;;;-145.95;88.11
37648;BME280;23490;53.656;10.076;2023-03-29T06:38:54;99459.31;;;-145.95;87.58
37648;BME280;23490;53.656;10.076;2023-03-29T06:41:19;99471.69;;;-145.95;88.25
37648;BME280;23490;53.656;10.076;2023-03-29T06:43:46;99484.09;;;-145.95;87.72
37648;BME280;23490;53.656;10.076;2023-03-29T06:46:12;99428.34;;;-145.95;88.77
37648;BME280;23490;53.656;10.076;2023-03-29T06:48:39;99451.06;;;-145.95;87.85
37648;BME280;23490;53.656;10.076;2023-03-29T06:51:05;99405.63;;;-145.95;87.83
37648;BME280;23490;53.656;10.076;2023-03-29T06:53:32;99442.78;;;-145.95;87.16
37648;BME280;23490;53.656;10.076;2023-03-29T06:55:57;99471.69;;;-145.95;87.62
37648;BME280;23490;53.656;10.076;2023-03-29T06:58:23;99428.34;;;-145.95;87.08
37648;BME280;23490;53.656;10.076;2023-03-29T07:00:49;99378.78;;;-145.95;86.15
37648;BME280;23490;53.656;10.076;2023-03-29T07:03:15;99442.78;;;-145.95;86.55
37648;BME280;23490;53.656;10.076;2023-03-29T07:05:45;99413.88;;;-145.95;85.92
37648;BME280;23490;53.656;10.076;2023-03-29T07:08:14;99453.13;;;-145.95;86.55
37648;BME280;23490;53.656;10.076;2023-03-29T07:10:43;99401.50;;;-145.95;85.85
37648;BME280;23490;53.656;10.076;2023-03-29T07:13:10;99413.88;;;-145.95;85.38
37648;BME280;23490;53.656;10.076;2023-03-29T07:15:42;99428.34;;;-145.95;86.34
37648;BME280;23490;53.656;10.076;2023-03-29T07:18:08;99397.34;;;-145.95;85.93
37648;BME280;23490;53.656;10.076;2023-03-29T07:20:34;99418.00;;;-145.95;86.51
37648;BME280;23490;53.656;10.076;2023-03-29T07:23:02;99422.13;;;-145.95;87.65
37648;BME280;23490;53.656;10.076;2023-03-29T07:25:28;99380.84;;;-145.95;86.66
37648;BME280;23490;53.656;10.076;2023-03-29T07:27:55;99418.00;;;-145.95;86.32
37648;BME280;23490;53.656;10.076;2023-03-29T07:30:24;99413.88;;;-145.95;87.28
37648;BME280;23490;53.656;10.076;2023-03-29T07:32:52;99389.09;;;-145.95;85.32
37648;BME280;23490;53.656;10.076;2023-03-29T07:35:17;99384.97;;;-145.95;86.28
37648;BME280;23490;53.656;10.076;2023-03-29T07:37:44;99343.66;;;-145.95;84.90
37648;BME280;23490;53.656;10.076;2023-03-29T07:40:11;99343.66;;;-145.95;85.41
37648;BME280;23490;53.656;10.076;2023-03-29T07:42:47;99364.31;;;-145.95;84.13
37648;BME280;23490;53.656;10.076;2023-03-29T07:45:14;99347.78;;;-145.95;84.67
37648;BME280;23490;53.656;10.076;2023-03-29T07:47:44;99306.50;;;-145.95;84.89
37648;BME280;23490;53.656;10.076;2023-03-29T07:50:11;99306.50;;;-145.95;84.12
37648;BME280;23490;53.656;10.076;2023-03-29T07:52:36;99281.72;;;-145.95;84.09
37648;BME280;23490;53.656;10.076;2023-03-29T07:55:06;99318.88;;;-145.95;83.79
37648;BME280;23490;53.656;10.076;2023-03-29T07:57:32;99273.44;;;-145.95;84.65
37648;BME280;23490;53.656;10.076;2023-03-29T07:59:58;99285.84;;;-145.95;82.51
37648;BME280;23490;53.656;10.076;2023-03-29T08:02:24;99310.63;;;-145.95;83.56
37648;BME280;23490;53.656;10.076;2023-03-29T08:04:49;99302.34;;;-145.95;83.04
37648;BME280;23490;53.656;10.076;2023-03-29T08:07:17;99285.84;;;-145.95;82.89
37648;BME280;23490;53.656;10.076;2023-03-29T08:09:45;99341.59;;;-145.95;83.68
37648;BME280;23490;53.656;10.076;2023-03-29T08:12:11;99308.56;;;-145.95;83.52
37648;BME280;23490;53.656;10.076;2023-03-29T08:14:36;99323.00;;;-145.95;82.44
37648;BME280;23490;53.656;10.076;2023-03-29T08:17:02;99331.28;;;-145.95;83.13
37648;BME280;23490;53.656;10.076;2023-03-29T08:19:28;99343.66;;;-145.95;83.24
37648;BME280;23490;53.656;10.076;2023-03-29T08:21:53;99294.09;;;-145.95;84.72
37648;BME280;23490;53.656;10.076;2023-03-29T08:24:18;99308.56;;;-145.95;83.84
37648;BME280;23490;53.656;10.076;2023-03-29T08:26:44;99306.50;;;-145.95;82.61
37648;BME280;23490;53.656;10.076;2023-03-29T08:29:09;99261.06;;;-145.95;83.15
37648;BME280;23490;53.656;10.076;2023-03-29T08:31:34;99306.50;;;-145.95;83.11
37648;BME280;23490;53.656;10.076;2023-03-29T08:34:00;99298.22;;;-145.95;82.71
37648;BME280;23490;53.656;10.076;2023-03-29T08:36:26;99269.31;;;-145.95;81.44
37648;BME280;23490;53.656;10.076;2023-03-29T08:38:52;99269.31;;;-145.95;81.88
37648;BME280;23490;53.656;10.076;2023-03-29T08:41:40;99269.31;;;-145.95;81.43
37648;BME280;23490;53.656;10.076;2023-03-29T08:44:33;99254.84;;;-145.95;79.80
37648;BME280;23490;53.656;10.076;2023-03-29T08:49:54;99256.94;;;-145.95;80.13
37648;BME280;23490;53.656;10.076;2023-03-29T08:52:35;99259.00;;;-145.95;79.61
37648;BME280;23490;53.656;10.076;2023-03-29T08:55:06;99211.50;;;-145.95;79.88
37648;BME280;23490;53.656;10.076;2023-03-29T08:57:40;99207.38;;;-145.95;78.62
37648;BME280;23490;53.656;10.076;2023-03-29T09:00:18;99240.41;;;-145.95;78.77
37648;BME280;23490;53.656;10.076;2023-03-29T09:02:46;99213.56;;;-145.95;79.62
37648;BME280;23490;53.656;10.076;2023-03-29T09:05:36;99149.53;;;-145.95;80.33
37648;BME280;23490;53.656;10.076;2023-03-29T09:08:11;99217.69;;;-145.95;78.71
37648;BME280;23490;53.656;10.076;2023-03-29T09:16:37;99180.50;;;-145.95;79.30
37648;BME280;23490;53.656;10.076;2023-03-29T09:27:20;99186.72;;;-145.95;76.61
37648;BME280;23490;53.656;10.076;2023-03-29T09:30:01;99190.84;;;-145.95;75.80
37648;BME280;23490;53.656;10.076;2023-03-29T09:33:11;99161.94;;;-145.95;75.63
37648;BME280;23490;53.656;10.076;2023-03-29T09:35:39;99157.81;;;-145.95;74.59
37648;BME280;23490;53.656;10.076;2023-03-29T09:38:09;99170.19;;;-145.95;75.49
37648;BME280;23490;53.656;10.076;2023-03-29T09:40:44;99149.53;;;-145.95;76.41
37648;BME280;23490;53.656;10.076;2023-03-29T09:43:15;99147.47;;;-145.95;75.75
37648;BME280;23490;53.656;10.076;2023-03-29T09:45:52;99128.88;;;-145.95;74.10
37648;BME280;23490;53.656;10.076;2023-03-29T09:48:20;99122.69;;;-145.95;73.48
37648;BME280;23490;53.656;10.076;2023-03-29T09:50:48;99147.47;;;-145.95;75.18
37648;BME280;23490;53.656;10.076;2023-03-29T09:53:19;99120.63;;;-145.95;73.72
37648;BME280;23490;53.656;10.076;2023-03-29T09:55:47;99155.72;;;-145.95;73.66
37648;BME280;23490;53.656;10.076;2023-03-29T09:58:16;99145.41;;;-145.95;74.10
37648;BME280;23490;53.656;10.076;2023-03-29T10:00:43;99145.41;;;-145.95;73.42
37648;BME280;23490;53.656;10.076;2023-03-29T10:03:16;99097.91;;;-145.95;74.50
37648;BME280;23490;53.656;10.076;2023-03-29T10:05:44;99087.59;;;-145.95;72.35
37648;BME280;23490;53.656;10.076;2023-03-29T10:08:17;99079.34;;;-145.95;72.70
37648;BME280;23490;53.656;10.076;2023-03-29T10:10:44;99066.94;;;-145.95;71.96
37648;BME280;23490;53.656;10.076;2023-03-29T10:13:15;99141.28;;;-145.95;72.46
37648;BME280;23490;53.656;10.076;2023-03-29T10:15:43;99087.59;;;-145.95;71.72
37648;BME280;23490;53.656;10.076;2023-03-29T10:18:11;99052.47;;;-145.95;73.60
37648;BME280;23490;53.656;10.076;2023-03-29T10:20:39;99133.03;;;-145.95;72.78
37648;BME280;23490;53.656;10.076;2023-03-29T10:23:06;99120.63;;;-145.95;71.95
37648;BME280;23490;53.656;10.076;2023-03-29T10:25:36;99104.09;;;-145.95;72.52
37648;BME280;23490;53.656;10.076;2023-03-29T10:28:22;99099.97;;;-145.95;73.58
37648;BME280;23490;53.656;10.076;2023-03-29T10:30:57;99112.38;;;-145.95;73.40
37648;BME280;23490;53.656;10.076;2023-03-29T10:33:24;99133.03;;;-145.95;73.54
37648;BME280;23490;53.656;10.076;2023-03-29T10:35:53;99099.97;;;-145.95;73.73
37648;BME280;23490;53.656;10.076;2023-03-29T10:38:23;99064.88;;;-145.95;73.46
37648;BME280;23490;53.656;10.076;2023-03-29T10:40:53;99048.34;;;-145.95;73.42
37648;BME280;23490;53.656;10.076;2023-03-29T10:45:47;99025.63;;;-145.95;74.40
37648;BME280;23490;53.656;10.076;2023-03-29T10:48:14;99017.38;;;-145.95;73.99
37648;BME280;23490;53.656;10.076;2023-03-29T10:50:40;98879.03;;;-145.95;72.24
37648;BME280;23490;53.656;10.076;2023-03-29T10:53:36;98901.75;;;-145.95;70.76
37648;BME280;23490;53.656;10.076;2023-03-29T11:01:47;98949.22;;;-145.95;71.19
37648;BME280;23490;53.656;10.076;2023-03-29T11:04:22;98959.56;;;-145.95;70.54
37648;BME280;23490;53.656;10.076;2023-03-29T11:09:48;98988.47;;;-145.95;72.21
37648;BME280;23490;53.656;10.076;2023-03-29T11:12:27;99013.25;;;-145.95;73.09
37648;BME280;23490;53.656;10.076;2023-03-29T11:25:27;99029.78;;;-145.95;75.34
37648;BME280;23490;53.656;10.076;2023-03-29T11:28:16;99025.63;;;-145.95;76.58
37648;BME280;23490;53.656;10.076;2023-03-29T11:30:52;99054.56;;;-145.95;77.77
37648;BME280;23490;53.656;10.076;2023-03-29T11:39:50;99095.84;;;-145.95;79.96
37648;BME280;23490;53.656;10.076;2023-03-29T11:42:22;99095.84;;;-145.95;79.35
37648;BME280;23490;53.656;10.076;2023-03-29T11:44:51;99054.56;;;-145.95;79.64
37648;BME280;23490;53.656;10.076;2023-03-29T11:47:23;99033.91;;;-145.95;80.76
37648;BME280;23490;53.656;10.076;2023-03-29T11:49:56;99062.81;;;-145.95;80.35
37648;BME280;23490;53.656;10.076;2023-03-29T11:52:38;99079.34;;;-145.95;81.00
37648;BME280;23490;53.656;10.076;2023-03-29T11:55:30;99075.19;;;-145.95;81.22
37648;BME280;23490;53.656;10.076;2023-03-29T11:58:09;99038.03;;;-145.95;81.40
37648;BME280;23490;53.656;10.076;2023-03-29T12:00:47;99079.34;;;-145.95;82.19
37648;BME280;23490;53.656;10.076;2023-03-29T12:06:19;99075.19;;;-145.95;86.30
37648;BME280;23490;53.656;10.076;2023-03-29T12:08:48;99120.63;;;-145.95;86.31
37648;BME280;23490;53.656;10.076;2023-03-29T12:13:52;99097.91;;;-145.95;84.64
37648;BME280;23490;53.656;10.076;2023-03-29T12:19:02;99099.97;;;-145.95;84.27
37648;BME280;23490;53.656;10.076;2023-03-29T12:21:29;99062.81;;;-145.95;84.40
37648;BME280;23490;53.656;10.076;2023-03-29T12:23:56;99060.75;;;-145.95;82.68
37648;BME280;23490;53.656;10.076;2023-03-29T12:26:31;99108.25;;;-145.95;82.48
37648;BME280;23490;53.656;10.076;2023-03-29T12:29:12;99046.28;;;-145.95;81.34
37648;BME280;23490;53.656;10.076;2023-03-29T12:39:45;99031.84;;;-145.95;80.33
37648;BME280;23490;53.656;10.076;2023-03-29T12:42:16;99048.34;;;-145.95;81.48
37648;BME280;23490;53.656;10.076;2023-03-29T12:44:48;99056.63;;;-145.95;81.05
37648;BME280;23490;53.656;10.076;2023-03-29T12:47:21;99071.06;;;-145.95;82.33
37648;BME280;23490;53.656;10.076;2023-03-29T12:49:53;99019.44;;;-145.95;80.70
37648;BME280;23490;53.656;10.076;2023-03-29T12:52:26;99009.13;;;-145.95;80.15
37648;BME280;23490;53.656;10.076;2023-03-29T12:55:16;99005.00;;;-145.95;79.46
37648;BME280;23490;53.656;10.076;2023-03-29T12:58:01;98980.22;;;-145.95;80.68
37648;BME280;23490;53.656;10.076;2023-03-29T13:00:45;98897.63;;;-145.95;79.62
37648;BME280;23490;53.656;10.076;2023-03-29T13:03:28;98901.75;;;-145.95;76.78
37648;BME280;23490;53.656;10.076;2023-03-29T13:06:03;98943.03;;;-145.95;76.37
37648;BME280;23490;53.656;10.076;2023-03-29T13:08:33;98901.75;;;-145.95;76.88
37648;BME280;23490;53.656;10.076;2023-03-29T13:10:59;98889.34;;;-145.95;76.20
37648;BME280;23490;53.656;10.076;2023-03-29T13:13:35;98961.63;;;-145.95;77.60
37648;BME280;23490;53.656;10.076;2023-03-29T13:16:19;98963.69;;;-145.95;79.05
37648;BME280;23490;53.656;10.076;2023-03-29T13:19:18;98938.91;;;-145.95;77.05
37648;BME280;23490;53.656;10.076;2023-03-29T13:22:16;98945.09;;;-145.95;77.43
37648;BME280;23490;53.656;10.076;2023-03-29T13:27:54;98934.78;;;-145.95;79.34
37648;BME280;23490;53.656;10.076;2023-03-29T13:38:21;98963.69;;;-145.95;79.15
37648;BME280;23490;53.656;10.076;2023-03-29T13:43:19;99000.84;;;-145.95;80.14
37648;BME280;23490;53.656;10.076;2023-03-29T13:50:55;98959.56;;;-145.95;80.68
37648;BME280;23490;53.656;10.076;2023-03-29T13:53:31;98938.91;;;-145.95;81.16
37648;BME280;23490;53.656;10.076;2023-03-29T13:55:59;98992.59;;;-145.95;81.42
37648;BME280;23490;53.656;10.076;2023-03-29T13:59:14;98971.94;;;-145.95;82.06
37648;BME280;23490;53.656;10.076;2023-03-29T14:01:52;98963.69;;;-145.95;81.03
37648;BME280;23490;53.656;10.076;2023-03-29T14:04:26;98943.03;;;-145.95;79.95
37648;BME280;23490;53.656;10.076;2023-03-29T14:06:55;98947.16;;;-145.95;80.78
37648;BME280;23490;53.656;10.076;2023-03-29T14:09:29;98914.13;;;-145.95;80.50
37648;BME280;23490;53.656;10.076;2023-03-29T14:12:00;98910.00;;;-145.95;80.45